sensor_id;sensor_type;location;lat;lon;timestamp;P1;durP1;ratioP1;P2;durP2;ratioP2
17714;SDS011;8977;50.902;4.314;2024-01-15T00:02:14;20.93;;;12.70;;
17714;SDS011;8977;50.902;4.314;2024-01-15T00:04:41;18.70;;;11.90;;
17714;SDS011;8977;50.902;4.314;2024-01-15T00:07:09;19.47;;;11.60;;
17714;SDS011;8977;50.902;4.314;2024-01-15T00:09:36;22.17;;;11.83;;
17714;SDS011;8977;50.902;4.314;2024-01-15T00:12:03;16.97;;;10.90;;
17714;SDS011;8977;50.902;4.314;2024-01-15T00:14:32;18.90;;;11.03;;
17714;SDS011;8977;50.902;4.314;2024-01-15T00:16:58;18.17;;;11.20;;
17714;SDS011;8977;50.902;4.314;2024-01-15T00:19:25;15.97;;;10.87;;
17714;SDS011;8977;50.902;4.314;2024-01-15T00:21:52;17.00;;;10.63;;
17714;SDS011;8977;50.902;4.314;2024-01-15T00:24:20;15.80;;;10.20;;
17714;SDS011;8977;50.902;4.314;2024-01-15T00:26:48;15.53;;;10.23;;
17714;SDS011;8977;50.902;4.314;2024-01-15T00:29:14;16.37;;;10.03;;
17714;SDS011;8977;50.902;4.314;2024-01-15T00:31:41;15.00;;;10.03;;
17714;SDS011;8977;50.902;4.314;2024-01-15T00:34:08;14.40;;;9.70;;
17714;SDS011;8977;50.902;4.314;2024-01-15T00:36:36;14.67;;;8.93;;
17714;SDS011;8977;50.902;4.314;2024-01-15T00:39:03;14.43;;;9.43;;
17714;SDS011;8977;50.902;4.314;2024-01-15T00:41:32;13.40;;;8.90;;
17714;SDS011;8977;50.902;4.314;2024-01-15T00:43:59;14.50;;;8.90;;
17714;SDS011;8977;50.902;4.314;2024-01-15T00:46:26;14.73;;;8.57;;
17714;SDS011;8977;50.902;4.314;2024-01-15T00:48:53;13.03;;;8.10;;
17714;SDS011;8977;50.902;4.314;2024-01-15T00:51:20;9.57;;;7.23;;
17714;SDS011;8977;50.902;4.314;2024-01-15T00:53:47;10.27;;;6.57;;
17714;SDS011;8977;50.902;4.314;2024-01-15T00:56:14;10.20;;;7.27;;
17714;SDS011;8977;50.902;4.314;2024-01-15T00:58:42;8.90;;;6.73;;
17714;SDS011;8977;50.902;4.314;2024-01-15T01:01:09;10.40;;;7.17;;
17714;SDS011;8977;50.902;4.314;2024-01-15T01:03:36;9.43;;;6.87;;
17714;SDS011;8977;50.902;4.314;2024-01-15T01:06:03;9.50;;;6.47;;
17714;SDS011;8977;50.902;4.314;2024-01-15T01:08:30;9.70;;;6.50;;
17714;SDS011;8977;50.902;4.314;2024-01-15T01:10:57;9.10;;;6.83;;
17714;SDS011;8977;50.902;4.314;2024-01-15T01:13:24;8.37;;;6.03;;
17714;SDS011;8977;50.902;4.314;2024-01-15T01:15:52;9.50;;;5.77;;
17714;SDS011;8977;50.902;4.314;2024-01-15T01:18:19;7.33;;;5.67;;
17714;SDS011;8977;50.902;4.314;2024-01-15T01:20:46;7.10;;;5.33;;
17714;SDS011;8977;50.902;4.314;2024-01-15T01:23:13;6.60;;;5.57;;
17714;SDS011;8977;50.902;4.314;2024-01-15T01:25:40;6.97;;;5.07;;
17714;SDS011;8977;50.902;4.314;2024-01-15T01:28:07;9.83;;;5.37;;
17714;SDS011;8977;50.902;4.314;2024-01-15T01:30:34;7.10;;;4.97;;
17714;SDS011;8977;50.902;4.314;2024-01-15T01:33:02;5.77;;;4.57;;
17714;SDS011;8977;50.902;4.314;2024-01-15T01:35:29;5.57;;;4.37;;
17714;SDS011;8977;50.902;4.314;2024-01-15T01:37:56;6.70;;;4.90;;
17714;SDS011;8977;50.902;4.314;2024-01-15T01:40:23;6.03;;;4.07;;
17714;SDS011;8977;50.902;4.314;2024-01-15T01:42:50;5.97;;;4.50;;
17714;SDS011;8977;50.902;4.314;2024-01-15T01:45:17;5.10;;;4.37;;
17714;SDS011;8977;50.902;4.314;2024-01-15T01:47:44;6.43;;;4.13;;
17714;SDS011;8977;50.902;4.314;2024-01-15T01:50:11;5.93;;;3.90;;
17714;SDS011;8977;50.902;4.314;2024-01-15T01:52:39;5.33;;;3.70;;
17714;SDS011;8977;50.902;4.314;2024-01-15T01:55:07;5.80;;;3.73;;
17714;SDS011;8977;50.902;4.314;2024-01-15T01:57:36;3.80;;;3.40;;
17714;SDS011;8977;50.902;4.314;2024-01-15T02:00:03;5.13;;;3.57;;
17714;SDS011;8977;50.902;4.314;2024-01-15T02:02:31;4.07;;;3.50;;
17714;SDS011;8977;50.902;4.314;2024-01-15T02:04:59;5.43;;;3.37;;
17714;SDS011;8977;50.902;4.314;2024-01-15T02:07:28;3.67;;;3.10;;
17714;SDS011;8977;50.902;4.314;2024-01-15T02:09:56;7.07;;;3.50;;
17714;SDS011;8977;50.902;4.314;2024-01-15T02:12:22;5.47;;;3.30;;
17714;SDS011;8977;50.902;4.314;2024-01-15T02:14:49;4.57;;;3.17;;
17714;SDS011;8977;50.902;4.314;2024-01-15T02:17:16;4.03;;;3.23;;
17714;SDS011;8977;50.902;4.314;2024-01-15T02:19:43;4.33;;;2.83;;
17714;SDS011;8977;50.902;4.314;2024-01-15T02:22:10;6.33;;;3.30;;
17714;SDS011;8977;50.902;4.314;2024-01-15T02:24:38;8.57;;;3.23;;
17714;SDS011;8977;50.902;4.314;2024-01-15T02:27:05;5.00;;;3.07;;
17714;SDS011;8977;50.902;4.314;2024-01-15T02:29:32;3.03;;;2.80;;
17714;SDS011;8977;50.902;4.314;2024-01-15T02:31:59;3.03;;;2.63;;
17714;SDS011;8977;50.902;4.314;2024-01-15T02:34:31;3.40;;;2.50;;
17714;SDS011;8977;50.902;4.314;2024-01-15T02:36:58;3.80;;;2.70;;
17714;SDS011;8977;50.902;4.314;2024-01-15T02:39:25;4.80;;;2.63;;
17714;SDS011;8977;50.902;4.314;2024-01-15T02:41:53;2.80;;;2.50;;
17714;SDS011;8977;50.902;4.314;2024-01-15T02:44:22;4.00;;;3.17;;
17714;SDS011;8977;50.902;4.314;2024-01-15T02:46:49;4.30;;;2.80;;
17714;SDS011;8977;50.902;4.314;2024-01-15T02:49:16;3.20;;;2.67;;
17714;SDS011;8977;50.902;4.314;2024-01-15T02:51:43;4.10;;;2.60;;
17714;SDS011;8977;50.902;4.314;2024-01-15T02:54:10;4.10;;;2.97;;
17714;SDS011;8977;50.902;4.314;2024-01-15T02:56:37;4.13;;;2.63;;
17714;SDS011;8977;50.902;4.314;2024-01-15T02:59:05;4.17;;;2.37;;
17714;SDS011;8977;50.902;4.314;2024-01-15T03:01:32;3.30;;;2.53;;
17714;SDS011;8977;50.902;4.314;2024-01-15T03:03:59;2.97;;;2.77;;
17714;SDS011;8977;50.902;4.314;2024-01-15T03:06:26;3.90;;;2.90;;
17714;SDS011;8977;50.902;4.314;2024-01-15T03:08:53;4.40;;;2.80;;
17714;SDS011;8977;50.902;4.314;2024-01-15T03:11:20;5.07;;;2.97;;
17714;SDS011;8977;50.902;4.314;2024-01-15T03:13:47;3.63;;;3.07;;
17714;SDS011;8977;50.902;4.314;2024-01-15T03:16:15;4.77;;;3.00;;
17714;SDS011;8977;50.902;4.314;2024-01-15T03:18:43;5.83;;;3.20;;
17714;SDS011;8977;50.902;4.314;2024-01-15T03:21:10;4.90;;;3.37;;
17714;SDS011;8977;50.902;4.314;2024-01-15T03:23:37;4.43;;;3.47;;
17714;SDS011;8977;50.902;4.314;2024-01-15T03:26:04;4.73;;;3.50;;
17714;SDS011;8977;50.902;4.314;2024-01-15T03:28:31;3.43;;;3.13;;
17714;SDS011;8977;50.902;4.314;2024-01-15T03:30:58;4.73;;;3.40;;
17714;SDS011;8977;50.902;4.314;2024-01-15T03:33:26;5.60;;;4.00;;
17714;SDS011;8977;50.902;4.314;2024-01-15T03:35:53;6.50;;;4.10;;
17714;SDS011;8977;50.902;4.314;2024-01-15T03:38:19;6.63;;;4.13;;
17714;SDS011;8977;50.902;4.314;2024-01-15T03:40:46;5.73;;;4.50;;
17714;SDS011;8977;50.902;4.314;2024-01-15T03:43:13;7.00;;;4.50;;
17714;SDS011;8977;50.902;4.314;2024-01-15T03:45:40;7.67;;;4.63;;
17714;SDS011;8977;50.902;4.314;2024-01-15T03:48:07;6.17;;;4.97;;
17714;SDS011;8977;50.902;4.314;2024-01-15T03:50:35;7.73;;;5.27;;
17714;SDS011;8977;50.902;4.314;2024-01-15T03:53:02;7.30;;;5.30;;
17714;SDS011;8977;50.902;4.314;2024-01-15T03:55:29;8.07;;;5.80;;
17714;SDS011;8977;50.902;4.314;2024-01-15T03:57:56;8.53;;;5.37;;
17714;SDS011;8977;50.902;4.314;2024-01-15T04:00:23;7.50;;;5.73;;
17714;SDS011;8977;50.902;4.314;2024-01-15T04:02:50;11.00;;;5.87;;
17714;SDS011;8977;50.902;4.314;2024-01-15T04:05:17;8.03;;;5.80;;
17714;SDS011;8977;50.902;4.314;2024-01-15T04:07:45;6.60;;;5.50;;
17714;SDS011;8977;50.902;4.314;2024-01-15T04:10:12;7.70;;;5.90;;
17714;SDS011;8977;50.902;4.314;2024-01-15T04:12:39;8.33;;;6.63;;
17714;SDS011;8977;50.902;4.314;2024-01-15T04:15:07;7.73;;;5.87;;
17714;SDS011;8977;50.902;4.314;2024-01-15T04:17:34;9.90;;;7.33;;
17714;SDS011;8977;50.902;4.314;2024-01-15T04:20:01;10.93;;;6.70;;
17714;SDS011;8977;50.902;4.314;2024-01-15T04:22:28;10.50;;;7.43;;
17714;SDS011;8977;50.902;4.314;2024-01-15T04:24:57;9.00;;;7.00;;
17714;SDS011;8977;50.902;4.314;2024-01-15T04:27:24;10.53;;;6.93;;
17714;SDS011;8977;50.902;4.314;2024-01-15T04:29:50;9.10;;;7.27;;
17714;SDS011;8977;50.902;4.314;2024-01-15T04:32:18;8.13;;;6.30;;
17714;SDS011;8977;50.902;4.314;2024-01-15T04:34:45;9.53;;;6.53;;
17714;SDS011;8977;50.902;4.314;2024-01-15T04:37:13;9.57;;;6.13;;
17714;SDS011;8977;50.902;4.314;2024-01-15T04:39:40;10.07;;;6.47;;
17714;SDS011;8977;50.902;4.314;2024-01-15T04:42:08;9.40;;;7.03;;
17714;SDS011;8977;50.902;4.314;2024-01-15T04:44:35;6.90;;;5.40;;
17714;SDS011;8977;50.902;4.314;2024-01-15T04:47:02;7.70;;;5.93;;
17714;SDS011;8977;50.902;4.314;2024-01-15T04:49:29;8.60;;;5.27;;
17714;SDS011;8977;50.902;4.314;2024-01-15T04:51:56;7.73;;;5.43;;
17714;SDS011;8977;50.902;4.314;2024-01-15T04:54:23;7.53;;;5.03;;
17714;SDS011;8977;50.902;4.314;2024-01-15T04:56:50;7.13;;;4.77;;
17714;SDS011;8977;50.902;4.314;2024-01-15T04:59:18;6.20;;;3.90;;
17714;SDS011;8977;50.902;4.314;2024-01-15T05:01:45;8.20;;;4.57;;
17714;SDS011;8977;50.902;4.314;2024-01-15T05:04:12;6.00;;;3.73;;
17714;SDS011;8977;50.902;4.314;2024-01-15T05:06:39;6.87;;;4.00;;
17714;SDS011;8977;50.902;4.314;2024-01-15T05:09:06;6.30;;;3.33;;
17714;SDS011;8977;50.902;4.314;2024-01-15T05:11:33;6.30;;;3.10;;
17714;SDS011;8977;50.902;4.314;2024-01-15T05:14:00;5.00;;;2.50;;
17714;SDS011;8977;50.902;4.314;2024-01-15T05:16:28;5.03;;;2.43;;
17714;SDS011;8977;50.902;4.314;2024-01-15T05:18:56;2.97;;;2.10;;
17714;SDS011;8977;50.902;4.314;2024-01-15T05:21:23;4.37;;;1.90;;
17714;SDS011;8977;50.902;4.314;2024-01-15T05:23:50;3.23;;;1.83;;
17714;SDS011;8977;50.902;4.314;2024-01-15T05:26:17;3.17;;;1.53;;
17714;SDS011;8977;50.902;4.314;2024-01-15T05:28:44;3.23;;;1.67;;
17714;SDS011;8977;50.902;4.314;2024-01-15T05:31:11;4.73;;;1.90;;
17714;SDS011;8977;50.902;4.314;2024-01-15T05:33:39;3.67;;;1.80;;
17714;SDS011;8977;50.902;4.314;2024-01-15T05:36:06;2.87;;;1.70;;
17714;SDS011;8977;50.902;4.314;2024-01-15T05:38:33;1.70;;;1.50;;
17714;SDS011;8977;50.902;4.314;2024-01-15T05:41:00;3.03;;;1.43;;
17714;SDS011;8977;50.902;4.314;2024-01-15T05:43:27;1.83;;;1.60;;
17714;SDS011;8977;50.902;4.314;2024-01-15T05:45:54;1.90;;;1.50;;
17714;SDS011;8977;50.902;4.314;2024-01-15T05:48:21;1.83;;;1.63;;
17714;SDS011;8977;50.902;4.314;2024-01-15T05:50:49;2.03;;;1.40;;
17714;SDS011;8977;50.902;4.314;2024-01-15T05:53:16;2.20;;;1.63;;
17714;SDS011;8977;50.902;4.314;2024-01-15T05:55:43;2.77;;;1.57;;
17714;SDS011;8977;50.902;4.314;2024-01-15T05:58:10;3.67;;;1.63;;
17714;SDS011;8977;50.902;4.314;2024-01-15T06:00:37;4.80;;;1.20;;
17714;SDS011;8977;50.902;4.314;2024-01-15T06:03:04;1.50;;;1.00;;
17714;SDS011;8977;50.902;4.314;2024-01-15T06:05:31;3.33;;;1.30;;
17714;SDS011;8977;50.902;4.314;2024-01-15T06:07:59;2.53;;;1.30;;
17714;SDS011;8977;50.902;4.314;2024-01-15T06:10:26;5.67;;;1.50;;
17714;SDS011;8977;50.902;4.314;2024-01-15T06:12:53;2.53;;;1.10;;
17714;SDS011;8977;50.902;4.314;2024-01-15T06:15:20;4.53;;;1.00;;
17714;SDS011;8977;50.902;4.314;2024-01-15T06:17:46;2.40;;;1.10;;
17714;SDS011;8977;50.902;4.314;2024-01-15T06:20:13;4.20;;;1.40;;
17714;SDS011;8977;50.902;4.314;2024-01-15T06:22:40;5.03;;;1.40;;
17714;SDS011;8977;50.902;4.314;2024-01-15T06:25:09;3.33;;;1.40;;
17714;SDS011;8977;50.902;4.314;2024-01-15T06:27:36;5.40;;;1.60;;
17714;SDS011;8977;50.902;4.314;2024-01-15T06:30:03;5.03;;;1.50;;
17714;SDS011;8977;50.902;4.314;2024-01-15T06:32:31;3.77;;;1.50;;
17714;SDS011;8977;50.902;4.314;2024-01-15T06:34:58;2.57;;;1.53;;
17714;SDS011;8977;50.902;4.314;2024-01-15T06:37:25;3.67;;;1.43;;
17714;SDS011;8977;50.902;4.314;2024-01-15T06:39:52;2.43;;;1.50;;
17714;SDS011;8977;50.902;4.314;2024-01-15T06:42:20;3.80;;;1.80;;
17714;SDS011;8977;50.902;4.314;2024-01-15T06:44:47;4.60;;;1.60;;
17714;SDS011;8977;50.902;4.314;2024-01-15T06:47:14;2.13;;;1.60;;
17714;SDS011;8977;50.902;4.314;2024-01-15T06:49:42;3.20;;;1.70;;
17714;SDS011;8977;50.902;4.314;2024-01-15T06:52:09;4.67;;;1.90;;
17714;SDS011;8977;50.902;4.314;2024-01-15T06:54:36;3.83;;;1.80;;
17714;SDS011;8977;50.902;4.314;2024-01-15T06:57:03;4.97;;;1.73;;
17714;SDS011;8977;50.902;4.314;2024-01-15T06:59:33;4.33;;;1.70;;
17714;SDS011;8977;50.902;4.314;2024-01-15T07:02:00;4.17;;;1.90;;
17714;SDS011;8977;50.902;4.314;2024-01-15T07:04:28;3.43;;;1.80;;
17714;SDS011;8977;50.902;4.314;2024-01-15T07:06:55;4.00;;;2.10;;
17714;SDS011;8977;50.902;4.314;2024-01-15T07:09:21;4.97;;;2.20;;
17714;SDS011;8977;50.902;4.314;2024-01-15T07:11:48;3.90;;;1.90;;
17714;SDS011;8977;50.902;4.314;2024-01-15T07:14:15;4.57;;;2.27;;
17714;SDS011;8977;50.902;4.314;2024-01-15T07:16:44;5.73;;;2.27;;
17714;SDS011;8977;50.902;4.314;2024-01-15T07:19:11;4.63;;;2.43;;
17714;SDS011;8977;50.902;4.314;2024-01-15T07:21:38;2.67;;;1.70;;
17714;SDS011;8977;50.902;4.314;2024-01-15T07:24:07;4.03;;;2.13;;
17714;SDS011;8977;50.902;4.314;2024-01-15T07:26:35;2.63;;;1.83;;
17714;SDS011;8977;50.902;4.314;2024-01-15T07:29:02;3.33;;;2.00;;
17714;SDS011;8977;50.902;4.314;2024-01-15T07:31:29;3.77;;;1.90;;
17714;SDS011;8977;50.902;4.314;2024-01-15T07:33:59;4.60;;;1.67;;
17714;SDS011;8977;50.902;4.314;2024-01-15T07:36:25;4.13;;;2.00;;
17714;SDS011;8977;50.902;4.314;2024-01-15T07:38:52;6.27;;;1.90;;
17714;SDS011;8977;50.902;4.314;2024-01-15T07:41:19;3.57;;;2.03;;
17714;SDS011;8977;50.902;4.314;2024-01-15T07:43:46;3.73;;;1.80;;
17714;SDS011;8977;50.902;4.314;2024-01-15T07:46:13;4.43;;;2.30;;
17714;SDS011;8977;50.902;4.314;2024-01-15T07:48:40;5.13;;;2.20;;
17714;SDS011;8977;50.902;4.314;2024-01-15T07:51:10;4.30;;;2.03;;
17714;SDS011;8977;50.902;4.314;2024-01-15T07:53:36;5.20;;;2.47;;
17714;SDS011;8977;50.902;4.314;2024-01-15T07:56:03;5.30;;;2.50;;
17714;SDS011;8977;50.902;4.314;2024-01-15T07:58:30;5.47;;;2.63;;
17714;SDS011;8977;50.902;4.314;2024-01-15T08:00:57;5.87;;;2.93;;
17714;SDS011;8977;50.902;4.314;2024-01-15T08:03:24;4.53;;;2.80;;
17714;SDS011;8977;50.902;4.314;2024-01-15T08:05:51;3.93;;;2.53;;
17714;SDS011;8977;50.902;4.314;2024-01-15T08:08:20;3.40;;;2.40;;
17714;SDS011;8977;50.902;4.314;2024-01-15T08:10:48;4.70;;;2.53;;
17714;SDS011;8977;50.902;4.314;2024-01-15T08:13:15;6.47;;;2.30;;
17714;SDS011;8977;50.902;4.314;2024-01-15T08:15:42;5.37;;;3.00;;
17714;SDS011;8977;50.902;4.314;2024-01-15T08:18:08;7.37;;;3.07;;
17714;SDS011;8977;50.902;4.314;2024-01-15T08:20:35;5.13;;;2.43;;
17714;SDS011;8977;50.902;4.314;2024-01-15T08:23:02;5.67;;;2.83;;
17714;SDS011;8977;50.902;4.314;2024-01-15T08:25:31;3.47;;;2.27;;
17714;SDS011;8977;50.902;4.314;2024-01-15T08:27:58;6.00;;;2.37;;
17714;SDS011;8977;50.902;4.314;2024-01-15T08:30:24;3.70;;;2.37;;
17714;SDS011;8977;50.902;4.314;2024-01-15T08:32:52;5.30;;;2.47;;
17714;SDS011;8977;50.902;4.314;2024-01-15T08:35:19;5.33;;;2.40;;
17714;SDS011;8977;50.902;4.314;2024-01-15T08:37:47;6.33;;;2.50;;
17714;SDS011;8977;50.902;4.314;2024-01-15T08:40:15;4.13;;;2.27;;
17714;SDS011;8977;50.902;4.314;2024-01-15T08:42:43;5.77;;;2.10;;
17714;SDS011;8977;50.902;4.314;2024-01-15T08:45:10;5.47;;;2.10;;
17714;SDS011;8977;50.902;4.314;2024-01-15T08:47:37;5.23;;;1.90;;
17714;SDS011;8977;50.902;4.314;2024-01-15T08:50:05;6.90;;;2.53;;
17714;SDS011;8977;50.902;4.314;2024-01-15T08:52:35;6.57;;;2.60;;
17714;SDS011;8977;50.902;4.314;2024-01-15T08:55:03;5.23;;;1.87;;
17714;SDS011;8977;50.902;4.314;2024-01-15T08:57:32;6.57;;;1.73;;
17714;SDS011;8977;50.902;4.314;2024-01-15T09:00:01;5.90;;;1.77;;
17714;SDS011;8977;50.902;4.314;2024-01-15T09:02:29;5.80;;;2.33;;
17714;SDS011;8977;50.902;4.314;2024-01-15T09:04:56;4.47;;;1.90;;
17714;SDS011;8977;50.902;4.314;2024-01-15T09:07:23;4.63;;;1.97;;
17714;SDS011;8977;50.902;4.314;2024-01-15T09:09:52;4.23;;;1.80;;
17714;SDS011;8977;50.902;4.314;2024-01-15T09:12:19;7.43;;;1.87;;
17714;SDS011;8977;50.902;4.314;2024-01-15T09:14:47;3.67;;;1.50;;
17714;SDS011;8977;50.902;4.314;2024-01-15T09:17:17;4.40;;;1.80;;
17714;SDS011;8977;50.902;4.314;2024-01-15T09:19:44;5.10;;;1.90;;
17714;SDS011;8977;50.902;4.314;2024-01-15T09:22:12;7.33;;;2.27;;
17714;SDS011;8977;50.902;4.314;2024-01-15T09:24:40;5.47;;;2.00;;
17714;SDS011;8977;50.902;4.314;2024-01-15T09:27:06;4.60;;;1.97;;
17714;SDS011;8977;50.902;4.314;2024-01-15T09:29:33;4.07;;;1.80;;
17714;SDS011;8977;50.902;4.314;2024-01-15T09:32:02;4.43;;;1.93;;
17714;SDS011;8977;50.902;4.314;2024-01-15T09:34:30;6.00;;;1.73;;
17714;SDS011;8977;50.902;4.314;2024-01-15T09:36:57;10.27;;;2.07;;
17714;SDS011;8977;50.902;4.314;2024-01-15T09:39:26;7.27;;;1.83;;
17714;SDS011;8977;50.902;4.314;2024-01-15T09:41:53;5.70;;;2.07;;
17714;SDS011;8977;50.902;4.314;2024-01-15T09:44:20;2.93;;;2.10;;
17714;SDS011;8977;50.902;4.314;2024-01-15T09:46:47;6.77;;;2.00;;
17714;SDS011;8977;50.902;4.314;2024-01-15T09:49:15;5.83;;;1.70;;
17714;SDS011;8977;50.902;4.314;2024-01-15T09:51:45;5.43;;;1.70;;
17714;SDS011;8977;50.902;4.314;2024-01-15T09:54:13;6.07;;;1.80;;
17714;SDS011;8977;50.902;4.314;2024-01-15T09:56:42;4.27;;;1.80;;
17714;SDS011;8977;50.902;4.314;2024-01-15T09:59:11;5.20;;;1.87;;
17714;SDS011;8977;50.902;4.314;2024-01-15T10:01:41;4.93;;;1.60;;
17714;SDS011;8977;50.902;4.314;2024-01-15T10:04:09;6.47;;;1.63;;
17714;SDS011;8977;50.902;4.314;2024-01-15T10:06:37;5.00;;;2.00;;
17714;SDS011;8977;50.902;4.314;2024-01-15T10:09:07;4.33;;;1.77;;
17714;SDS011;8977;50.902;4.314;2024-01-15T10:11:34;6.43;;;1.47;;
17714;SDS011;8977;50.902;4.314;2024-01-15T10:14:02;6.77;;;2.00;;
17714;SDS011;8977;50.902;4.314;2024-01-15T10:16:30;4.13;;;1.40;;
17714;SDS011;8977;50.902;4.314;2024-01-15T10:18:57;3.90;;;1.70;;
17714;SDS011;8977;50.902;4.314;2024-01-15T10:21:24;7.13;;;1.43;;
17714;SDS011;8977;50.902;4.314;2024-01-15T10:23:52;5.73;;;1.50;;
17714;SDS011;8977;50.902;4.314;2024-01-15T10:26:25;4.33;;;1.90;;
17714;SDS011;8977;50.902;4.314;2024-01-15T10:28:52;7.03;;;1.70;;
17714;SDS011;8977;50.902;4.314;2024-01-15T10:31:19;8.03;;;1.60;;
17714;SDS011;8977;50.902;4.314;2024-01-15T10:33:47;4.57;;;1.43;;
17714;SDS011;8977;50.902;4.314;2024-01-15T10:36:14;6.07;;;1.73;;
17714;SDS011;8977;50.902;4.314;2024-01-15T10:38:42;7.43;;;1.90;;
17714;SDS011;8977;50.902;4.314;2024-01-15T10:41:10;6.40;;;1.90;;
17714;SDS011;8977;50.902;4.314;2024-01-15T10:43:39;4.00;;;1.87;;
17714;SDS011;8977;50.902;4.314;2024-01-15T10:46:07;8.37;;;1.70;;
17714;SDS011;8977;50.902;4.314;2024-01-15T10:48:34;5.33;;;1.93;;
17714;SDS011;8977;50.902;4.314;2024-01-15T10:51:01;9.70;;;1.67;;
17714;SDS011;8977;50.902;4.314;2024-01-15T10:53:35;4.67;;;1.67;;
17714;SDS011;8977;50.902;4.314;2024-01-15T10:56:05;5.90;;;1.90;;
17714;SDS011;8977;50.902;4.314;2024-01-15T10:58:33;4.00;;;2.00;;
17714;SDS011;8977;50.902;4.314;2024-01-15T11:01:03;4.17;;;1.40;;
17714;SDS011;8977;50.902;4.314;2024-01-15T11:03:31;6.03;;;1.90;;
17714;SDS011;8977;50.902;4.314;2024-01-15T11:05:58;3.63;;;1.30;;
17714;SDS011;8977;50.902;4.314;2024-01-15T11:08:26;5.23;;;1.40;;
17714;SDS011;8977;50.902;4.314;2024-01-15T11:10:53;5.87;;;2.10;;
17714;SDS011;8977;50.902;4.314;2024-01-15T11:13:20;4.87;;;1.60;;
17714;SDS011;8977;50.902;4.314;2024-01-15T11:15:54;6.83;;;1.40;;
17714;SDS011;8977;50.902;4.314;2024-01-15T11:18:22;4.80;;;1.60;;
17714;SDS011;8977;50.902;4.314;2024-01-15T11:23:48;5.20;;;1.43;;
17714;SDS011;8977;50.902;4.314;2024-01-15T11:31:57;6.47;;;1.53;;
17714;SDS011;8977;50.902;4.314;2024-01-15T11:37:24;5.20;;;1.50;;
17714;SDS011;8977;50.902;4.314;2024-01-15T11:39:52;3.47;;;1.17;;
17714;SDS011;8977;50.902;4.314;2024-01-15T11:42:19;3.57;;;1.47;;
17714;SDS011;8977;50.902;4.314;2024-01-15T11:44:47;2.53;;;1.27;;
17714;SDS011;8977;50.902;4.314;2024-01-15T11:47:14;4.73;;;1.63;;
17714;SDS011;8977;50.902;4.314;2024-01-15T11:49:53;3.53;;;1.40;;
17714;SDS011;8977;50.902;4.314;2024-01-15T11:52:31;3.73;;;1.20;;
17714;SDS011;8977;50.902;4.314;2024-01-15T11:55:07;3.87;;;1.50;;
17714;SDS011;8977;50.902;4.314;2024-01-15T11:57:41;5.23;;;1.10;;
17714;SDS011;8977;50.902;4.314;2024-01-15T12:00:13;3.87;;;1.10;;
17714;SDS011;8977;50.902;4.314;2024-01-15T12:02:40;2.70;;;1.27;;
17714;SDS011;8977;50.902;4.314;2024-01-15T12:05:10;3.50;;;1.23;;
17714;SDS011;8977;50.902;4.314;2024-01-15T12:07:38;5.03;;;1.50;;
17714;SDS011;8977;50.902;4.314;2024-01-15T12:10:08;5.97;;;1.40;;
17714;SDS011;8977;50.902;4.314;2024-01-15T12:12:48;5.67;;;1.77;;
17714;SDS011;8977;50.902;4.314;2024-01-15T12:15:23;6.87;;;1.60;;
17714;SDS011;8977;50.902;4.314;2024-01-15T12:17:51;4.67;;;1.30;;
17714;SDS011;8977;50.902;4.314;2024-01-15T12:20:19;5.33;;;1.43;;
17714;SDS011;8977;50.902;4.314;2024-01-15T12:22:46;5.53;;;1.70;;
17714;SDS011;8977;50.902;4.314;2024-01-15T12:25:13;5.50;;;1.67;;
17714;SDS011;8977;50.902;4.314;2024-01-15T12:27:40;2.33;;;1.10;;
17714;SDS011;8977;50.902;4.314;2024-01-15T12:30:10;7.13;;;1.80;;
17714;SDS011;8977;50.902;4.314;2024-01-15T12:32:37;4.60;;;1.40;;
17714;SDS011;8977;50.902;4.314;2024-01-15T12:35:04;5.00;;;1.77;;
17714;SDS011;8977;50.902;4.314;2024-01-15T12:37:34;4.00;;;1.40;;
17714;SDS011;8977;50.902;4.314;2024-01-15T12:40:01;5.63;;;1.50;;
17714;SDS011;8977;50.902;4.314;2024-01-15T12:42:29;7.73;;;1.60;;
17714;SDS011;8977;50.902;4.314;2024-01-15T12:44:56;3.97;;;1.70;;
17714;SDS011;8977;50.902;4.314;2024-01-15T12:47:23;3.40;;;1.30;;
17714;SDS011;8977;50.902;4.314;2024-01-15T12:49:51;2.67;;;1.50;;
17714;SDS011;8977;50.902;4.314;2024-01-15T12:52:20;4.30;;;1.70;;
17714;SDS011;8977;50.902;4.314;2024-01-15T12:54:49;4.13;;;1.50;;
17714;SDS011;8977;50.902;4.314;2024-01-15T12:57:16;6.97;;;2.00;;
17714;SDS011;8977;50.902;4.314;2024-01-15T12:59:43;8.47;;;1.73;;
17714;SDS011;8977;50.902;4.314;2024-01-15T13:02:10;3.90;;;1.50;;
17714;SDS011;8977;50.902;4.314;2024-01-15T13:04:37;3.23;;;1.47;;
17714;SDS011;8977;50.902;4.314;2024-01-15T13:07:06;3.90;;;1.47;;
17714;SDS011;8977;50.902;4.314;2024-01-15T13:09:33;4.67;;;1.33;;
17714;SDS011;8977;50.902;4.314;2024-01-15T13:12:02;4.90;;;1.33;;
17714;SDS011;8977;50.902;4.314;2024-01-15T13:14:30;3.57;;;1.40;;
17714;SDS011;8977;50.902;4.314;2024-01-15T13:16:58;4.60;;;1.37;;
17714;SDS011;8977;50.902;4.314;2024-01-15T13:19:25;7.50;;;1.53;;
17714;SDS011;8977;50.902;4.314;2024-01-15T13:21:52;4.43;;;1.40;;
17714;SDS011;8977;50.902;4.314;2024-01-15T13:24:20;8.30;;;1.97;;
17714;SDS011;8977;50.902;4.314;2024-01-15T13:26:47;3.60;;;1.50;;
17714;SDS011;8977;50.902;4.314;2024-01-15T13:29:15;6.03;;;1.20;;
17714;SDS011;8977;50.902;4.314;2024-01-15T13:31:42;4.93;;;1.83;;
17714;SDS011;8977;50.902;4.314;2024-01-15T13:34:11;8.00;;;1.33;;
17714;SDS011;8977;50.902;4.314;2024-01-15T13:36:39;8.73;;;1.90;;
17714;SDS011;8977;50.902;4.314;2024-01-15T13:39:06;5.77;;;2.20;;
17714;SDS011;8977;50.902;4.314;2024-01-15T13:41:34;5.50;;;1.80;;
17714;SDS011;8977;50.902;4.314;2024-01-15T13:44:01;4.47;;;1.47;;
17714;SDS011;8977;50.902;4.314;2024-01-15T13:46:30;4.23;;;1.60;;
17714;SDS011;8977;50.902;4.314;2024-01-15T13:48:57;8.23;;;1.80;;
17714;SDS011;8977;50.902;4.314;2024-01-15T13:51:24;4.63;;;1.60;;
17714;SDS011;8977;50.902;4.314;2024-01-15T13:53:51;6.73;;;1.77;;
17714;SDS011;8977;50.902;4.314;2024-01-15T13:56:18;5.13;;;1.37;;
17714;SDS011;8977;50.902;4.314;2024-01-15T13:58:45;2.20;;;1.33;;
17714;SDS011;8977;50.902;4.314;2024-01-15T14:01:13;2.60;;;1.50;;
17714;SDS011;8977;50.902;4.314;2024-01-15T14:03:41;4.20;;;1.50;;
17714;SDS011;8977;50.902;4.314;2024-01-15T14:06:08;3.70;;;1.97;;
17714;SDS011;8977;50.902;4.314;2024-01-15T14:08:36;3.60;;;2.20;;
17714;SDS011;8977;50.902;4.314;2024-01-15T14:11:03;4.07;;;1.53;;
17714;SDS011;8977;50.902;4.314;2024-01-15T14:13:31;3.47;;;1.70;;
17714;SDS011;8977;50.902;4.314;2024-01-15T14:15:58;3.43;;;1.20;;
17714;SDS011;8977;50.902;4.314;2024-01-15T14:18:25;6.53;;;1.40;;
17714;SDS011;8977;50.902;4.314;2024-01-15T14:20:53;6.23;;;1.50;;
17714;SDS011;8977;50.902;4.314;2024-01-15T14:23:21;3.57;;;1.33;;
17714;SDS011;8977;50.902;4.314;2024-01-15T14:25:48;5.87;;;1.33;;
17714;SDS011;8977;50.902;4.314;2024-01-15T14:28:15;2.70;;;0.90;;
17714;SDS011;8977;50.902;4.314;2024-01-15T14:30:42;2.63;;;1.03;;
17714;SDS011;8977;50.902;4.314;2024-01-15T14:33:09;1.90;;;0.80;;
17714;SDS011;8977;50.902;4.314;2024-01-15T14:35:36;1.33;;;0.90;;
17714;SDS011;8977;50.902;4.314;2024-01-15T14:38:05;2.30;;;0.97;;
17714;SDS011;8977;50.902;4.314;2024-01-15T14:40:32;2.50;;;1.20;;
17714;SDS011;8977;50.902;4.314;2024-01-15T14:43:00;2.53;;;1.33;;
17714;SDS011;8977;50.902;4.314;2024-01-15T14:45:28;3.73;;;1.50;;
17714;SDS011;8977;50.902;4.314;2024-01-15T14:47:55;2.30;;;1.33;;
17714;SDS011;8977;50.902;4.314;2024-01-15T14:50:23;3.23;;;1.63;;
17714;SDS011;8977;50.902;4.314;2024-01-15T14:52:50;6.23;;;1.57;;
17714;SDS011;8977;50.902;4.314;2024-01-15T14:55:18;3.03;;;1.60;;
17714;SDS011;8977;50.902;4.314;2024-01-15T14:57:46;2.63;;;1.33;;
17714;SDS011;8977;50.902;4.314;2024-01-15T15:00:14;2.60;;;1.17;;
17714;SDS011;8977;50.902;4.314;2024-01-15T15:02:42;1.23;;;0.90;;
17714;SDS011;8977;50.902;4.314;2024-01-15T15:05:09;2.53;;;0.90;;
17714;SDS011;8977;50.902;4.314;2024-01-15T15:07:38;3.40;;;1.03;;
17714;SDS011;8977;50.902;4.314;2024-01-15T15:10:05;3.10;;;1.00;;
17714;SDS011;8977;50.902;4.314;2024-01-15T15:12:34;3.87;;;1.07;;
17714;SDS011;8977;50.902;4.314;2024-01-15T15:15:01;3.37;;;0.93;;